首页
METAR-TAF:

METAR-TAF

机场 :

汉诺威-朗根哈根机场

汉诺威, 德国

纬度: 52-28N, 经度: 009-41E, 海拔: 56米

当前天气观测

该预报发布于33分钟前的16:50 UTC
风速9节,风向西
温度 0°C
湿度 86%
气压 1022 hPa
能見度: 5000
阴天层高于700英尺
轻雾

METAR: EDDV 241650Z 26009KT 5000 BR OVC007 M00/M02 Q1022 TEMPO 4000

时间: 18:23 (17:23 UTC)

预报

该预报发布于1小时和39分钟前的15:44 UTC
预报有效从24日的 15点(UTC)到 25日的 12点(UTC)
风速5节,风向西转西南
能見度: 6000
多云层高于800英尺
短暂存在
从 24日的 15点(UTC)到 24日的 18点(UTC)
能見度: 4000
轻雾
几率 40% :
短暂存在
从 24日的 15点(UTC)到 25日的 10点(UTC)
多云层高于1100英尺
几率 30% :
短暂存在
从 24日的 18点(UTC)到 25日的 08点(UTC)
能見度: 2000
轻雾
成为
从 25日的 10点(UTC)到 25日的 12点(UTC)
多云层高于1400英尺

TAF: EDDV 241544Z 2415/2512 24005KT 6000 BKN008 TEMPO 2415/2418 4000 BR PROB40 TEMPO 2415/2510 BKN011 PROB30 TEMPO 2418/2508 2000 BR BECMG 2510/2512 BKN014

超过4000个机场的气象观测和天气预报(METAR&TAF报告)。

可查询的气象台以黄色和红色小点在地图上表示。

将鼠标移到小点上方,可查看气象台名称。

然后点击查看天气观测和预报。

如需切换地图:点击带黑十字的绿色按钮放大地图;点击带横线的绿色按钮缩小地图;或者点击绿色箭头查看邻近地区的地图。


METAR-TAF: